Home Previsioni Grafici Avvisi Live Satellite Webcam Min e Max Mappe Metar Effemeridi Terremoti Info Glossario

Report METAR

 

LIEB - Cape Bellavista, Italy
Distance from station: SE 54km
Dati ricevuti: 20/09/2018 15:55
DATI Obsoleti
Molto nuvoloso
Molto nuvoloso
 Vento da N
Vento: N 22 km/h
Temperatura: 21°C
P.to Rugiada: 17°C
Umidità: 78%
Barometro: 1014 hPa
Nuvole: Molto nuvoloso
Visibility: 10 km
Cloud details: Few Clouds 762 m
Few Clouds 914 m
Molto nuvoloso 1006 m
2018/09/20 13:55 LIEB 201355Z 36012KT 9999 FEW025 FEW030CB BKN033 21/17 Q1014 RMK OVC QUK 3 QUL 0 VIS MAR 25 KM MON LIB VIS MIN 9999
LIEO - Olbia/Costa Smer, Italy
Distance from station: NNE 70km
Dati ricevuti: 20/09/2018 19:50
Parz. nuvoloso
Parz. nuvoloso
 Vento da O
Vento: O 6 km/h
Temperatura: 22°C
P.to Rugiada: 21°C
Umidità: 94%
Barometro: 1015 hPa
Nuvole: Parz. nuvoloso
Visibility: 10 km
Cloud details: Few Clouds 457 m
Parz. nuvoloso 762 m
2018/09/20 17:50 LIEO 201750Z 27003KT 230V330 9999 FEW015 SCT025 22/21 Q1015
 
LIEA - Alghero, Italy
Distance from station: ONO 94km
Dati ricevuti: 20/09/2018 19:50
Sereno
Sereno
 Vento da NNE
Vento: NNE 13 km/h
Temperatura: 25°C
P.to Rugiada: 20°C
Umidità: 74%
Barometro: 1015 hPa
Summary: Sereno
Visibility: superiore a 10 km
2018/09/20 17:50 LIEA 201750Z 02007KT CAVOK 25/20 Q1015
LIED - Decimomannu(It-A, Italy
Distance from station: SSO 107km
Dati ricevuti: 20/09/2018 15:55
DATI Obsoleti
Temporale, Parz. nuvoloso
Temporale, Parz. nuvoloso
 Vento da N
Vento: N 15 km/h
Temperatura: 24°C
P.to Rugiada: 23°C
Umidità: 94%
Barometro: 1014 hPa
Summary: Temporale
Nuvole: Parz. nuvoloso
Visibility: 10 km
Cloud details: Few Clouds 762 m
Few Clouds 823 m
Parz. nuvoloso 914 m
2018/09/20 13:55 LIED 201355Z 36008KT 9999 TS FEW025CB FEW027TCU SCT030 24/23 Q1014 RMK BKN VIS MIN 7000SE WIND THR35 36009KT WIND THR17 /////KT WHT
 
LIEE - Cagliari/Elmas(A, Italy
Distance from station: S 116km
Dati ricevuti: 20/09/2018 19:50
Few Clouds
Few Clouds
 Vento da NO
Vento: NO 19 km/h
Temperatura: 23°C
P.to Rugiada: 20°C
Umidità: 83%
Barometro: 1013 hPa
Nuvole: Few Clouds
Visibility: 10 km
Cloud details: Few Clouds 914 m
2018/09/20 17:50 LIEE 201750Z 32010KT 9999 FEW030 23/20 Q1013 RERA
LIEC - Cape Carbonara, Italy
Distance from station: S 133km
Dati ricevuti: 20/09/2018 15:55
DATI Obsoleti
Light thunderstorm, Pioggia, Nubi sparse
Light thunderstorm, Pioggia, Nubi sparse
 Vento da SO
Vento: SO 43 km/h
Temperatura: 25°C
P.to Rugiada: 23°C
Umidità: 89%
Barometro: 1013 hPa
Summary: Light thunderstorm, Pioggia
Nuvole: Few Clouds
Visibility: 10 km
Cloud details: Parz. nuvoloso 549 m
Few Clouds 610 m
2018/09/20 13:55 LIEC 201355Z 22023KT 9999 -TSRA SCT018 FEW020CB 25/23 Q1013 RMK BKN SCT080 QUK 3 QUL 0 VIS MAR 15 KM VIS MIN 9999
 
LFKF - Figari (aut), France
Distance from station: N 137km
Dati ricevuti: 20/09/2018 20:00
Sereno
Sereno
 Vento da Variabile
Vento: Variabile 6 km/h
Temperatura: 23°C
P.to Rugiada: 18°C
Umidità: 74%
Barometro: 1015 hPa
Summary: Sereno
Visibility: superiore a 10 km
2018/09/20 18:00 LFKF 201800Z AUTO VRB03KT CAVOK 23/18 Q1015 NOSIG
LFKS - Solenzara (fafb), France
Distance from station: N 182km
Dati ricevuti: 20/09/2018 20:00
Sereno
Sereno
 Vento da O
Vento: O 6 km/h
Temperatura: 23°C
P.to Rugiada: 19°C
Umidità: 78%
Barometro: 1016 hPa
Summary: Sereno
Visibility: superiore a 10 km
2018/09/20 18:00 LFKS 201800Z AUTO 27003KT CAVOK 23/19 Q1016